createdAt,value
2022-11-25T00:08:14.644Z,97572.22
2022-11-25T00:18:16.067Z,97571.47
2022-11-25T00:28:18.598Z,97576.28
2022-11-25T00:38:20.070Z,97583.53
2022-11-25T00:48:21.503Z,97598.16
2022-11-25T00:58:22.930Z,97587.09
2022-11-25T01:08:24.392Z,97588.94
2022-11-25T01:18:25.996Z,97592.69
2022-11-25T01:28:28.472Z,97588.09
2022-11-25T01:38:30.088Z,97582.72
2022-11-25T01:48:55.105Z,97590.09
2022-11-25T01:58:56.865Z,97579.72
2022-11-25T02:09:08.859Z,97585.69
2022-11-25T02:19:20.735Z,97577.00
2022-11-25T02:29:22.657Z,97581.94
2022-11-25T02:39:25.617Z,97580.59
2022-11-25T02:49:27.131Z,97580.97
2022-11-25T02:59:28.626Z,97574.63
2022-11-25T03:09:30.237Z,97567.88
2022-11-25T03:19:31.865Z,97569.38
2022-11-25T03:29:33.425Z,97591.75
2022-11-25T03:39:35.653Z,97594.91
2022-11-25T03:49:37.593Z,97607.13
2022-11-25T03:59:39.428Z,97597.47
2022-11-25T04:09:41.557Z,97595.50
2022-11-25T04:19:43.363Z,97601.50
2022-11-25T04:29:45.223Z,97601.69
2022-11-25T04:39:49.367Z,97600.50
2022-11-25T04:49:52.148Z,97590.84
2022-11-25T04:59:54.824Z,97591.38
2022-11-25T05:09:56.730Z,97595.09
2022-11-25T05:20:10.292Z,97588.75
2022-11-25T05:30:13.133Z,97588.81
2022-11-25T05:40:16.050Z,97601.63
2022-11-25T05:50:38.719Z,97590.34
2022-11-25T06:00:55.969Z,97589.34
2022-11-25T06:10:58.163Z,97591.16
2022-11-25T06:21:00.004Z,97620.22
2022-11-25T06:31:14.440Z,97621.63
2022-11-25T06:41:26.432Z,97637.50
2022-11-25T06:51:27.893Z,97640.66
2022-11-25T07:01:30.558Z,97648.00
2022-11-25T07:11:37.691Z,97652.53
2022-11-25T07:21:39.961Z,97646.78
2022-11-25T07:31:43.624Z,97656.53
2022-11-25T07:41:46.042Z,97652.59
2022-11-25T07:51:48.863Z,97665.66
2022-11-25T08:01:54.784Z,97661.28
2022-11-25T08:11:56.422Z,97660.91
2022-11-25T08:21:58.018Z,97690.91
2022-11-25T08:31:59.551Z,97700.88
2022-11-25T08:42:04.458Z,97722.84
2022-11-25T08:52:05.986Z,97720.00
2022-11-25T09:02:17.813Z,97729.03
2022-11-25T09:12:19.401Z,97717.88
2022-11-25T09:22:20.847Z,97720.19
2022-11-25T09:32:22.337Z,97715.94
2022-11-25T09:42:57.865Z,97727.91
2022-11-25T09:53:15.613Z,97719.47
2022-11-25T10:03:29.325Z,97710.25
2022-11-25T10:13:46.581Z,97705.16
2022-11-25T10:23:48.051Z,97704.00
2022-11-25T10:33:57.278Z,97691.25
2022-11-25T10:43:58.788Z,97697.88
2022-11-25T10:54:09.650Z,97685.19
2022-11-25T11:04:15.042Z,97676.16
2022-11-25T11:14:19.936Z,97673.16
2022-11-25T11:24:31.887Z,97661.00
2022-11-25T11:34:52.537Z,97672.34
2022-11-25T11:45:12.631Z,97671.81
2022-11-25T11:56:18.988Z,97671.19
2022-11-25T12:06:15.602Z,97675.50
2022-11-25T12:16:35.869Z,97678.56
2022-11-25T12:26:52.132Z,97668.84
2022-11-25T12:37:02.520Z,97679.41
2022-11-25T12:47:09.980Z,97681.31
2022-11-25T12:57:26.711Z,97677.25
2022-11-25T13:07:44.001Z,97687.28
2022-11-25T13:17:49.026Z,97687.66
2022-11-25T13:27:57.559Z,97707.81
2022-11-25T13:37:59.027Z,97723.31
2022-11-25T13:48:15.499Z,97710.00
2022-11-25T13:58:20.769Z,97709.78
2022-11-25T14:08:43.579Z,97715.19
2022-11-25T14:29:32.807Z,97750.13
2022-11-25T14:39:54.521Z,97770.81
2022-11-25T14:50:34.266Z,97782.06
2022-11-25T15:00:21.303Z,97783.47
2022-11-25T15:10:40.382Z,97803.38
2022-11-25T15:20:47.168Z,97809.94
2022-11-25T15:31:07.226Z,97823.84
2022-11-25T15:41:18.995Z,97833.06
2022-11-25T15:51:41.672Z,97855.25
2022-11-25T16:01:43.297Z,97862.91
2022-11-25T16:11:45.295Z,97876.53
2022-11-25T16:22:11.444Z,97880.63
2022-11-25T16:32:19.153Z,97888.28
2022-11-25T16:42:21.912Z,97896.63
2022-11-25T16:52:23.366Z,97906.38
2022-11-25T17:02:25.212Z,97923.44
2022-11-25T17:12:30.943Z,97941.88
2022-11-25T17:22:38.770Z,97947.72
2022-11-25T17:32:40.670Z,97958.59
2022-11-25T17:42:42.845Z,97964.09
2022-11-25T17:52:44.507Z,97975.63
2022-11-25T18:02:46.539Z,97997.22
2022-11-25T18:12:51.210Z,98020.75
2022-11-25T18:22:53.429Z,98030.00
2022-11-25T18:32:56.246Z,98037.19
2022-11-25T18:43:00.503Z,98048.19
2022-11-25T18:53:01.946Z,98056.00
2022-11-25T19:03:04.162Z,98068.50
2022-11-25T19:13:08.266Z,98076.88
2022-11-25T19:23:22.730Z,98102.59
2022-11-25T19:33:37.400Z,98113.34
2022-11-25T19:43:38.831Z,98138.47
2022-11-25T19:53:40.387Z,98166.78
2022-11-25T20:03:47.936Z,98174.72
2022-11-25T20:13:50.495Z,98198.56
2022-11-25T20:23:52.938Z,98218.78
2022-11-25T20:33:54.398Z,98244.00
2022-11-25T20:43:56.744Z,98260.56
2022-11-25T20:54:03.109Z,98266.03
2022-11-25T21:04:04.713Z,98279.47
2022-11-25T21:14:13.735Z,98281.66
2022-11-25T21:24:30.229Z,98297.41
2022-11-25T21:34:31.679Z,98310.00
2022-11-25T21:44:37.967Z,98322.53
2022-11-25T21:54:40.177Z,98327.69
2022-11-25T22:04:41.743Z,98341.94
2022-11-25T22:14:43.233Z,98348.44
2022-11-25T22:24:45.607Z,98357.09
2022-11-25T22:34:47.064Z,98365.34
2022-11-25T22:44:49.524Z,98372.66
2022-11-25T22:54:51.585Z,98383.38
2022-11-25T23:04:55.339Z,98389.44
2022-11-25T23:14:56.760Z,98404.44
2022-11-25T23:24:58.174Z,98405.03
2022-11-25T23:34:59.669Z,98413.22
2022-11-25T23:45:01.095Z,98412.75
2022-11-25T23:55:03.685Z,98419.84
